createdAt,value
2023-01-31T00:01:43.959Z,5.40
2023-01-31T00:04:12.676Z,7.63
2023-01-31T00:06:45.120Z,8.10
2023-01-31T00:09:13.175Z,18.40
2023-01-31T00:11:40.119Z,10.38
2023-01-31T00:14:10.540Z,7.50
2023-01-31T00:16:37.600Z,17.17
2023-01-31T00:19:04.900Z,8.50
2023-01-31T00:21:32.636Z,12.73
2023-01-31T00:24:00.862Z,10.02
2023-01-31T00:26:32.004Z,10.85
2023-01-31T00:29:03.682Z,10.77
2023-01-31T00:31:33.852Z,7.93
2023-01-31T00:34:01.892Z,9.85
2023-01-31T00:36:34.950Z,7.60
2023-01-31T00:39:06.097Z,6.35
2023-01-31T00:41:36.091Z,13.05
2023-01-31T00:44:06.531Z,13.02
2023-01-31T00:46:33.866Z,4.88
2023-01-31T00:49:02.009Z,5.18
2023-01-31T00:51:28.881Z,13.88
2023-01-31T00:53:55.805Z,12.50
2023-01-31T00:56:25.724Z,14.70
2023-01-31T00:58:53.415Z,15.55
2023-01-31T01:01:29.514Z,6.25
2023-01-31T01:03:57.952Z,9.75
2023-01-31T01:06:26.341Z,16.10
2023-01-31T01:08:55.209Z,11.05
2023-01-31T01:11:34.483Z,6.63
2023-01-31T01:14:02.408Z,14.13
2023-01-31T01:16:39.144Z,8.77
2023-01-31T01:19:13.243Z,9.90
2023-01-31T01:21:40.811Z,11.75
2023-01-31T01:24:19.593Z,15.20
2023-01-31T01:26:47.584Z,12.48
2023-01-31T01:29:14.747Z,13.85
2023-01-31T01:31:41.694Z,18.33
2023-01-31T01:34:16.216Z,10.60
2023-01-31T01:36:45.630Z,10.98
2023-01-31T01:39:16.713Z,12.40
2023-01-31T01:41:45.835Z,13.48
2023-01-31T01:44:52.462Z,16.95
2023-01-31T01:47:44.512Z,16.33
2023-01-31T01:50:30.179Z,15.90
2023-01-31T01:53:11.109Z,18.90
2023-01-31T01:55:49.812Z,8.90
2023-01-31T01:58:41.195Z,25.17
2023-01-31T02:01:09.057Z,22.45
2023-01-31T02:03:37.985Z,25.17
2023-01-31T02:06:07.015Z,6.85
2023-01-31T02:08:38.084Z,11.32
2023-01-31T02:11:05.135Z,14.73
2023-01-31T02:13:33.291Z,28.95
2023-01-31T02:16:00.201Z,11.85
2023-01-31T02:18:28.180Z,17.45
2023-01-31T02:21:55.479Z,22.70
2023-01-31T02:24:53.071Z,10.00
2023-01-31T02:27:59.353Z,22.58
2023-01-31T02:31:18.667Z,13.27
2023-01-31T02:34:01.216Z,22.45
2023-01-31T02:36:36.081Z,19.27
2023-01-31T02:39:36.949Z,18.63
2023-01-31T02:42:17.248Z,9.18
2023-01-31T02:45:14.506Z,15.35
2023-01-31T02:47:51.562Z,14.55
2023-01-31T02:50:38.784Z,19.40
2023-01-31T02:53:36.557Z,17.17
2023-01-31T02:56:34.929Z,17.33
2023-01-31T02:59:22.277Z,15.40
2023-01-31T03:02:01.343Z,12.90
2023-01-31T03:04:34.187Z,10.77
2023-01-31T03:07:13.663Z,19.50
2023-01-31T03:10:13.907Z,23.08
2023-01-31T03:13:31.468Z,19.60
2023-01-31T03:16:30.521Z,22.13
2023-01-31T03:19:14.085Z,17.35
2023-01-31T03:22:00.630Z,24.15
2023-01-31T03:24:30.293Z,23.13
2023-01-31T03:27:02.571Z,13.07
2023-01-31T03:29:36.402Z,23.70
2023-01-31T03:32:29.423Z,20.45
2023-01-31T03:34:57.406Z,25.85
2023-01-31T03:38:06.157Z,22.10
2023-01-31T03:40:56.819Z,30.80
2023-01-31T03:44:08.125Z,22.40
2023-01-31T03:46:44.623Z,17.08
2023-01-31T03:49:16.503Z,29.08
2023-01-31T03:51:53.328Z,33.03
2023-01-31T03:54:30.520Z,25.83
2023-01-31T03:57:13.189Z,27.08
2023-01-31T03:59:44.357Z,23.88
2023-01-31T04:02:16.270Z,30.20
2023-01-31T04:04:56.959Z,17.73
2023-01-31T04:07:24.849Z,31.00
2023-01-31T04:09:52.366Z,20.13
2023-01-31T04:12:19.242Z,28.73
2023-01-31T04:14:46.145Z,26.83
2023-01-31T04:17:13.403Z,24.40
2023-01-31T04:19:40.346Z,30.50
2023-01-31T04:22:07.191Z,28.23
2023-01-31T04:24:34.368Z,18.83
2023-01-31T04:27:01.232Z,22.73
2023-01-31T04:29:28.064Z,29.13
2023-01-31T04:31:55.086Z,21.13
2023-01-31T04:34:22.000Z,27.30
2023-01-31T04:36:48.853Z,24.95
2023-01-31T04:39:16.440Z,25.52
2023-01-31T04:41:43.577Z,25.63
2023-01-31T04:44:10.551Z,21.60
2023-01-31T04:46:37.826Z,23.23
2023-01-31T04:49:04.688Z,22.40
2023-01-31T04:51:31.831Z,35.95
2023-01-31T04:53:58.846Z,25.60
2023-01-31T04:56:25.653Z,35.78
2023-01-31T04:58:52.473Z,24.63
2023-01-31T05:01:19.426Z,25.67
2023-01-31T05:03:46.399Z,26.40
2023-01-31T05:06:13.177Z,28.45
2023-01-31T05:08:40.028Z,37.95
2023-01-31T05:11:08.771Z,27.48
2023-01-31T05:13:38.815Z,27.15
2023-01-31T05:16:11.227Z,27.92
2023-01-31T05:18:39.180Z,34.45
2023-01-31T05:21:08.230Z,28.63
2023-01-31T05:23:36.192Z,23.92
2023-01-31T05:26:03.946Z,20.73
2023-01-31T05:28:31.192Z,21.92
2023-01-31T05:31:06.225Z,18.75
2023-01-31T05:33:33.576Z,28.25
2023-01-31T05:36:02.405Z,38.78
2023-01-31T05:38:29.271Z,26.60
2023-01-31T05:40:56.065Z,32.67
2023-01-31T05:43:22.945Z,22.38
2023-01-31T05:45:50.168Z,21.73
2023-01-31T05:48:17.092Z,28.10
2023-01-31T05:50:44.217Z,31.35
2023-01-31T05:53:13.995Z,26.17
2023-01-31T05:55:41.018Z,30.48
2023-01-31T05:58:07.858Z,19.63
2023-01-31T06:00:34.832Z,22.80
2023-01-31T06:03:01.750Z,36.25
2023-01-31T06:05:28.824Z,27.60
2023-01-31T06:07:56.908Z,22.45
2023-01-31T06:10:23.951Z,27.15
2023-01-31T06:12:50.857Z,19.42
2023-01-31T06:15:18.528Z,25.60
2023-01-31T06:17:45.680Z,23.58
2023-01-31T06:20:12.737Z,26.58
2023-01-31T06:22:41.075Z,35.05
2023-01-31T06:25:08.829Z,19.70
2023-01-31T06:27:36.004Z,28.50
2023-01-31T06:30:03.046Z,22.15
2023-01-31T06:32:29.879Z,29.35
2023-01-31T06:34:57.348Z,28.27
2023-01-31T06:37:24.742Z,27.48
2023-01-31T06:39:51.600Z,26.13
2023-01-31T06:42:18.393Z,16.15
2023-01-31T06:44:45.248Z,20.70
2023-01-31T06:47:13.129Z,24.92
2023-01-31T06:49:40.304Z,28.98
2023-01-31T06:52:07.259Z,25.55
2023-01-31T06:54:34.155Z,26.55
2023-01-31T06:57:00.994Z,21.08
2023-01-31T06:59:27.947Z,18.95
2023-01-31T07:01:54.833Z,16.77
2023-01-31T07:04:22.014Z,26.40
2023-01-31T07:06:48.983Z,23.67
2023-01-31T07:09:15.875Z,30.25
2023-01-31T07:11:42.722Z,27.48
2023-01-31T07:14:09.650Z,23.40
2023-01-31T07:16:38.255Z,22.73
2023-01-31T07:19:05.474Z,30.08
2023-01-31T07:21:33.398Z,15.65
2023-01-31T07:24:00.370Z,28.30
2023-01-31T07:26:27.427Z,17.70
2023-01-31T07:28:54.396Z,29.08
2023-01-31T07:31:21.670Z,23.67
2023-01-31T07:33:48.686Z,18.10
2023-01-31T07:36:19.933Z,19.67
2023-01-31T07:38:46.847Z,23.98
2023-01-31T07:41:13.762Z,33.45
2023-01-31T07:43:40.704Z,31.27
2023-01-31T07:46:10.441Z,23.95
2023-01-31T07:48:38.724Z,25.98
2023-01-31T07:51:07.199Z,16.42
2023-01-31T07:53:41.974Z,19.85
2023-01-31T07:56:15.131Z,27.52
2023-01-31T07:58:44.724Z,19.48
2023-01-31T08:01:36.801Z,17.45
2023-01-31T08:04:19.985Z,17.13
2023-01-31T08:06:49.802Z,17.00
2023-01-31T08:09:16.644Z,26.13
2023-01-31T08:11:43.896Z,26.42
2023-01-31T08:14:10.768Z,22.50
2023-01-31T08:16:38.375Z,21.55
2023-01-31T08:19:05.858Z,24.52
2023-01-31T08:21:33.063Z,25.27
2023-01-31T08:24:00.038Z,19.50
2023-01-31T08:26:27.156Z,28.48
2023-01-31T08:28:55.251Z,13.80
2023-01-31T08:31:26.199Z,15.20
2023-01-31T08:33:55.827Z,21.98
2023-01-31T08:36:27.842Z,21.45
2023-01-31T08:38:55.773Z,16.52
2023-01-31T08:41:26.192Z,17.10
2023-01-31T08:43:57.962Z,11.90
2023-01-31T08:46:30.743Z,17.08
2023-01-31T08:49:00.335Z,19.02
2023-01-31T08:51:28.289Z,16.23
2023-01-31T08:53:55.425Z,20.50
2023-01-31T08:56:25.992Z,12.50
2023-01-31T08:58:54.831Z,25.20
2023-01-31T09:01:23.044Z,16.60
2023-01-31T09:03:56.983Z,13.57
2023-01-31T09:06:27.402Z,17.67
2023-01-31T09:08:57.810Z,21.83
2023-01-31T09:11:29.001Z,16.63
2023-01-31T09:13:57.196Z,12.88
2023-01-31T09:16:24.110Z,17.42
2023-01-31T09:18:51.676Z,19.15
2023-01-31T09:21:21.693Z,19.35
2023-01-31T09:23:49.571Z,17.65
2023-01-31T09:26:17.009Z,15.77
2023-01-31T09:28:45.466Z,28.38
2023-01-31T09:31:20.568Z,16.42
2023-01-31T09:33:48.042Z,19.02
2023-01-31T09:36:20.586Z,20.58
2023-01-31T09:38:48.765Z,21.15
2023-01-31T09:41:24.757Z,14.27
2023-01-31T09:44:05.667Z,15.20
2023-01-31T09:46:41.726Z,11.77
2023-01-31T09:49:21.033Z,12.70
2023-01-31T09:51:57.794Z,14.75
2023-01-31T09:54:35.204Z,15.20
2023-01-31T09:57:44.646Z,14.57
2023-01-31T10:00:32.753Z,16.80
2023-01-31T10:03:06.545Z,15.70
2023-01-31T10:05:56.078Z,13.38
2023-01-31T10:08:49.770Z,20.08
2023-01-31T10:12:00.052Z,21.10
2023-01-31T10:17:32.732Z,22.23
2023-01-31T10:20:03.638Z,16.85
2023-01-31T10:22:46.416Z,23.17
2023-01-31T10:25:37.113Z,21.50
2023-01-31T10:28:20.915Z,22.98
2023-01-31T10:31:32.302Z,18.83
2023-01-31T10:34:07.200Z,23.33
2023-01-31T10:36:58.778Z,20.00
2023-01-31T10:39:35.336Z,22.92
2023-01-31T10:42:29.388Z,25.48
2023-01-31T10:45:31.093Z,26.67
2023-01-31T10:48:16.189Z,21.52
2023-01-31T10:50:51.672Z,31.20
2023-01-31T10:53:46.225Z,28.92
2023-01-31T10:56:38.183Z,25.95
2023-01-31T10:59:14.662Z,24.02
2023-01-31T11:01:42.257Z,28.30
2023-01-31T11:04:43.262Z,30.63
2023-01-31T11:07:11.006Z,23.98
2023-01-31T11:09:43.829Z,29.98
2023-01-31T11:12:10.807Z,28.85
2023-01-31T11:14:37.780Z,28.48
2023-01-31T11:17:26.086Z,25.08
2023-01-31T11:19:57.614Z,36.97
2023-01-31T11:22:30.628Z,30.67
2023-01-31T11:25:00.914Z,37.17
2023-01-31T11:27:43.916Z,33.22
2023-01-31T11:30:28.023Z,33.30
2023-01-31T11:32:55.523Z,35.35
2023-01-31T11:35:28.068Z,30.85
2023-01-31T11:38:04.157Z,32.42
2023-01-31T11:40:40.114Z,30.75
2023-01-31T11:43:29.825Z,20.30
2023-01-31T11:46:00.690Z,20.80
2023-01-31T11:48:47.920Z,33.08
2023-01-31T11:51:31.778Z,27.90
2023-01-31T11:53:58.765Z,25.15
2023-01-31T11:56:34.202Z,22.95
2023-01-31T11:59:08.453Z,28.88
2023-01-31T12:01:49.237Z,32.45
2023-01-31T12:04:26.222Z,23.08
2023-01-31T12:07:06.402Z,29.20
2023-01-31T12:09:44.668Z,26.58
2023-01-31T12:12:35.746Z,32.60
2023-01-31T12:15:13.955Z,32.10
2023-01-31T12:17:47.624Z,24.92
2023-01-31T12:20:27.720Z,26.00
2023-01-31T12:23:15.198Z,29.98
2023-01-31T12:25:51.112Z,29.02
2023-01-31T12:28:52.926Z,20.17
2023-01-31T12:31:52.255Z,18.98
2023-01-31T12:35:01.495Z,19.95
2023-01-31T12:38:00.232Z,22.92
2023-01-31T12:40:45.052Z,22.50
2023-01-31T12:43:55.186Z,26.00
2023-01-31T12:49:24.375Z,12.38
2023-01-31T12:52:38.692Z,19.13
2023-01-31T12:55:23.821Z,21.00
2023-01-31T12:58:33.993Z,13.50
2023-01-31T13:01:24.418Z,17.98
2023-01-31T13:04:25.279Z,15.45
2023-01-31T13:07:03.323Z,16.50
2023-01-31T13:09:37.622Z,18.38
2023-01-31T13:12:14.767Z,10.55
2023-01-31T13:14:50.919Z,20.35
2023-01-31T13:17:26.292Z,16.52
2023-01-31T13:20:02.066Z,13.13
2023-01-31T13:22:43.050Z,13.68
2023-01-31T13:25:42.139Z,10.10
2023-01-31T13:28:23.153Z,15.30
2023-01-31T13:31:00.180Z,16.17
2023-01-31T13:33:37.225Z,10.80
2023-01-31T13:36:28.998Z,14.30
2023-01-31T13:38:57.930Z,12.57
2023-01-31T13:41:35.805Z,15.73
2023-01-31T13:44:03.125Z,13.60
2023-01-31T13:46:42.313Z,17.55
2023-01-31T13:49:33.955Z,16.45
2023-01-31T13:52:12.741Z,12.15
2023-01-31T13:54:49.152Z,20.45
2023-01-31T13:57:24.840Z,15.77
2023-01-31T13:59:59.158Z,16.27
2023-01-31T14:02:27.213Z,9.82
2023-01-31T14:05:24.134Z,13.52
2023-01-31T14:08:44.706Z,13.48
2023-01-31T14:11:14.450Z,18.58
2023-01-31T14:13:45.580Z,18.90
2023-01-31T14:16:37.804Z,16.90
2023-01-31T14:19:26.377Z,18.58
2023-01-31T14:22:02.335Z,19.85
2023-01-31T14:24:47.509Z,13.02
2023-01-31T14:27:22.292Z,14.15
2023-01-31T14:30:01.066Z,18.80
2023-01-31T14:32:58.033Z,11.00
2023-01-31T14:35:33.139Z,10.88
2023-01-31T14:38:05.512Z,17.48
2023-01-31T14:43:37.320Z,13.38
2023-01-31T14:46:29.986Z,12.45
2023-01-31T14:49:09.440Z,15.32
2023-01-31T14:52:25.131Z,10.30
2023-01-31T14:55:48.948Z,16.88
2023-01-31T14:58:26.432Z,12.60
2023-01-31T15:00:59.242Z,9.20
2023-01-31T15:03:48.628Z,15.05
2023-01-31T15:06:41.067Z,12.20
2023-01-31T15:09:24.565Z,12.45
2023-01-31T15:11:55.519Z,12.25
2023-01-31T15:14:41.290Z,12.18
2023-01-31T15:17:33.723Z,10.52
2023-01-31T15:20:22.212Z,12.52
2023-01-31T15:22:51.024Z,12.90
2023-01-31T15:25:39.768Z,12.13
2023-01-31T15:28:10.601Z,13.73
2023-01-31T15:30:40.783Z,14.85
2023-01-31T15:33:26.848Z,14.27
2023-01-31T15:36:00.608Z,16.75
2023-01-31T15:38:34.611Z,10.85
2023-01-31T15:41:24.154Z,10.88
2023-01-31T15:43:55.212Z,13.90
2023-01-31T15:46:30.756Z,10.05
2023-01-31T15:48:59.875Z,6.85
2023-01-31T15:51:28.229Z,7.13
2023-01-31T15:54:06.779Z,21.17
2023-01-31T15:59:14.992Z,14.45
2023-01-31T16:01:58.748Z,9.02
2023-01-31T16:04:25.802Z,8.60
2023-01-31T16:06:52.910Z,13.88
2023-01-31T16:09:38.761Z,10.73
2023-01-31T16:12:05.948Z,13.27
2023-01-31T16:14:35.023Z,17.52
2023-01-31T16:17:02.544Z,14.10
2023-01-31T16:19:35.942Z,14.38
2023-01-31T16:22:03.113Z,11.82
2023-01-31T16:24:32.090Z,10.60
2023-01-31T16:27:01.594Z,13.10
2023-01-31T16:29:52.497Z,6.70
2023-01-31T16:32:51.452Z,14.52
2023-01-31T16:35:29.580Z,10.13
2023-01-31T16:38:04.341Z,14.57
2023-01-31T16:40:45.293Z,13.60
2023-01-31T16:43:24.440Z,10.77
2023-01-31T16:46:06.663Z,9.10
2023-01-31T16:48:40.316Z,8.25
2023-01-31T16:51:22.670Z,8.25
2023-01-31T16:54:11.652Z,11.65
2023-01-31T16:56:39.922Z,11.02
2023-01-31T16:59:37.551Z,10.63
2023-01-31T17:02:17.025Z,8.80
2023-01-31T17:04:46.365Z,13.18
2023-01-31T17:07:35.107Z,10.88
2023-01-31T17:10:09.107Z,10.27
2023-01-31T17:12:40.987Z,12.00
2023-01-31T17:15:17.850Z,11.07
2023-01-31T17:17:45.163Z,9.15
2023-01-31T17:20:20.786Z,10.00
2023-01-31T17:22:56.950Z,16.23
2023-01-31T17:25:34.071Z,12.10
2023-01-31T17:28:00.948Z,16.10
2023-01-31T17:30:30.511Z,12.52
2023-01-31T17:32:58.876Z,9.55
2023-01-31T17:35:38.907Z,12.15
2023-01-31T17:38:06.266Z,9.38
2023-01-31T17:40:33.630Z,14.05
2023-01-31T17:43:04.158Z,8.15
2023-01-31T17:45:32.557Z,10.23
2023-01-31T17:47:59.798Z,5.60
2023-01-31T17:50:29.138Z,12.52
2023-01-31T17:52:57.062Z,8.27
2023-01-31T17:55:25.124Z,13.30
2023-01-31T17:57:52.770Z,12.35
2023-01-31T18:00:21.193Z,15.50
2023-01-31T18:02:48.344Z,10.05
2023-01-31T18:05:24.544Z,9.07
2023-01-31T18:07:54.594Z,14.52
2023-01-31T18:10:21.537Z,11.93
2023-01-31T18:12:48.352Z,13.98
2023-01-31T18:15:15.363Z,18.33
2023-01-31T18:17:42.335Z,12.98
2023-01-31T18:20:09.935Z,7.82
2023-01-31T18:22:36.796Z,16.25
2023-01-31T18:25:05.419Z,15.02
2023-01-31T18:27:32.301Z,17.55
2023-01-31T18:29:59.157Z,10.43
2023-01-31T18:32:26.105Z,13.98
2023-01-31T18:34:53.048Z,11.45
2023-01-31T18:37:20.597Z,13.63
2023-01-31T18:39:49.387Z,11.23
2023-01-31T18:42:17.207Z,10.50
2023-01-31T18:44:44.995Z,15.60
2023-01-31T18:47:13.410Z,12.90
2023-01-31T18:49:40.418Z,15.55
2023-01-31T18:52:08.440Z,12.75
2023-01-31T18:54:37.632Z,17.85
2023-01-31T18:57:04.946Z,9.43
2023-01-31T18:59:35.122Z,11.68
2023-01-31T19:02:02.123Z,13.38
2023-01-31T19:04:29.099Z,13.05
2023-01-31T19:06:57.279Z,15.95
2023-01-31T19:09:24.294Z,10.60
2023-01-31T19:11:51.113Z,12.85
2023-01-31T19:14:18.023Z,8.25
2023-01-31T19:16:45.132Z,12.82
2023-01-31T19:19:13.106Z,20.25
2023-01-31T19:21:40.952Z,17.27
2023-01-31T19:24:15.815Z,11.05
2023-01-31T19:26:43.562Z,14.77
2023-01-31T19:29:15.218Z,20.75
2023-01-31T19:31:42.412Z,20.42
2023-01-31T19:34:10.003Z,9.90
2023-01-31T19:36:40.720Z,20.63
2023-01-31T19:39:11.944Z,12.00
2023-01-31T19:41:38.934Z,11.77
2023-01-31T19:44:06.041Z,7.20
2023-01-31T19:46:36.694Z,18.10
2023-01-31T19:49:05.548Z,13.35
2023-01-31T19:51:33.600Z,13.85
2023-01-31T19:54:02.921Z,11.13
2023-01-31T19:56:31.565Z,16.95
2023-01-31T19:58:59.880Z,18.70
2023-01-31T20:01:26.891Z,16.00
2023-01-31T20:03:55.073Z,16.85
2023-01-31T20:06:25.723Z,12.93
2023-01-31T20:08:59.070Z,13.23
2023-01-31T20:11:28.909Z,20.05
2023-01-31T20:14:00.361Z,11.63
2023-01-31T20:16:27.343Z,19.92
2023-01-31T20:18:56.219Z,9.75
2023-01-31T20:21:23.851Z,17.08
2023-01-31T20:23:52.653Z,10.55
2023-01-31T20:26:22.329Z,10.80
2023-01-31T20:28:49.424Z,13.85
2023-01-31T20:31:17.267Z,14.20
2023-01-31T20:33:44.661Z,10.88
2023-01-31T20:36:12.589Z,11.05
2023-01-31T20:38:41.059Z,19.95
2023-01-31T20:41:09.235Z,12.35
2023-01-31T20:43:37.937Z,9.70
2023-01-31T20:46:08.855Z,10.40
2023-01-31T20:48:36.112Z,14.88
2023-01-31T20:51:03.560Z,21.25
2023-01-31T20:53:31.915Z,12.65
2023-01-31T20:56:10.751Z,14.10
2023-01-31T20:58:43.106Z,12.77
2023-01-31T21:01:11.987Z,11.80
2023-01-31T21:03:39.035Z,12.43
2023-01-31T21:06:07.553Z,18.67
2023-01-31T21:08:35.665Z,9.70
2023-01-31T21:11:07.826Z,12.57
2023-01-31T21:13:36.425Z,19.98
2023-01-31T21:16:07.800Z,20.15
2023-01-31T21:18:38.783Z,20.13
2023-01-31T21:21:09.776Z,15.95
2023-01-31T21:23:39.605Z,16.27
2023-01-31T21:26:10.141Z,17.73
2023-01-31T21:28:37.663Z,16.45
2023-01-31T21:31:09.858Z,10.13
2023-01-31T21:33:36.864Z,11.90
2023-01-31T21:36:09.291Z,20.05
2023-01-31T21:41:22.663Z,12.55
2023-01-31T21:43:49.543Z,14.88
2023-01-31T21:46:16.672Z,16.95
2023-01-31T21:48:43.771Z,20.25
2023-01-31T21:51:14.836Z,16.40
2023-01-31T21:53:42.581Z,13.48
2023-01-31T21:56:18.905Z,15.75
2023-01-31T21:58:46.677Z,26.15
2023-01-31T22:01:23.832Z,10.38
2023-01-31T22:03:53.098Z,17.92
2023-01-31T22:06:30.975Z,10.70
2023-01-31T22:09:00.732Z,16.30
2023-01-31T22:11:33.071Z,14.45
2023-01-31T22:16:28.182Z,16.02
2023-01-31T22:18:55.200Z,9.07
2023-01-31T22:21:29.513Z,14.10
2023-01-31T22:23:59.631Z,13.57
2023-01-31T22:26:33.781Z,14.85
2023-01-31T22:29:04.269Z,11.05
2023-01-31T22:31:32.143Z,13.38
2023-01-31T22:34:03.664Z,13.13
2023-01-31T22:36:31.676Z,13.32
2023-01-31T22:38:58.672Z,11.30
2023-01-31T22:41:25.867Z,7.80
2023-01-31T22:43:53.832Z,16.38
2023-01-31T22:46:25.028Z,9.88
2023-01-31T22:48:52.791Z,8.90
2023-01-31T22:51:24.410Z,8.18
2023-01-31T22:53:52.043Z,27.48
2023-01-31T22:56:22.664Z,14.23
2023-01-31T22:58:56.048Z,10.20
2023-01-31T23:01:26.416Z,8.95
2023-01-31T23:03:58.468Z,12.43
2023-01-31T23:06:26.781Z,11.55
2023-01-31T23:08:54.118Z,14.05
2023-01-31T23:11:21.655Z,11.25
2023-01-31T23:13:48.454Z,13.45
2023-01-31T23:16:57.553Z,11.73
2023-01-31T23:19:24.430Z,8.10
2023-01-31T23:21:51.262Z,11.15
2023-01-31T23:24:19.124Z,11.88
2023-01-31T23:26:46.256Z,9.77
2023-01-31T23:29:13.503Z,11.50
2023-01-31T23:31:40.651Z,11.93
2023-01-31T23:34:07.844Z,24.02
2023-01-31T23:36:34.908Z,22.10
2023-01-31T23:39:01.755Z,11.52
2023-01-31T23:41:28.666Z,12.75
2023-01-31T23:43:55.618Z,9.88
2023-01-31T23:46:22.461Z,11.27
2023-01-31T23:48:49.337Z,11.73
2023-01-31T23:51:16.111Z,10.95
2023-01-31T23:53:42.916Z,11.00
2023-01-31T23:56:09.757Z,12.65
2023-01-31T23:58:36.591Z,14.60
